sensor_id;sensor_type;location;lat;lon;timestamp;pressure;altitude;pressure_sealevel;temperature;humidity
10079;BME280;5078;42.544;22.966;2022-09-12T00:01:05;93705.47;;;15.67;100.00
10079;BME280;5078;42.544;22.966;2022-09-12T00:03:32;93703.22;;;15.64;100.00
10079;BME280;5078;42.544;22.966;2022-09-12T00:05:59;93706.75;;;15.51;100.00
10079;BME280;5078;42.544;22.966;2022-09-12T00:08:27;93708.59;;;15.58;100.00
10079;BME280;5078;42.544;22.966;2022-09-12T00:10:53;93716.47;;;15.32;100.00
10079;BME280;5078;42.544;22.966;2022-09-12T00:13:20;93711.34;;;15.31;100.00
10079;BME280;5078;42.544;22.966;2022-09-12T00:15:47;93717.72;;;15.23;100.00
10079;BME280;5078;42.544;22.966;2022-09-12T00:18:15;93715.03;;;15.17;100.00
10079;BME280;5078;42.544;22.966;2022-09-12T00:20:43;93718.53;;;15.17;100.00
10079;BME280;5078;42.544;22.966;2022-09-12T00:23:10;93718.34;;;15.25;100.00
10079;BME280;5078;42.544;22.966;2022-09-12T00:25:41;93717.91;;;15.22;100.00
10079;BME280;5078;42.544;22.966;2022-09-12T00:28:08;93716.69;;;15.11;100.00
10079;BME280;5078;42.544;22.966;2022-09-12T00:30:39;93708.66;;;15.24;100.00
10079;BME280;5078;42.544;22.966;2022-09-12T00:33:06;93709.91;;;15.35;100.00
10079;BME280;5078;42.544;22.966;2022-09-12T00:35:33;93702.66;;;15.42;100.00
10079;BME280;5078;42.544;22.966;2022-09-12T00:37:59;93711.72;;;15.35;100.00
10079;BME280;5078;42.544;22.966;2022-09-12T00:40:26;93712.16;;;15.31;100.00
10079;BME280;5078;42.544;22.966;2022-09-12T00:42:54;93709.69;;;15.17;100.00
10079;BME280;5078;42.544;22.966;2022-09-12T00:45:24;93712.78;;;15.20;100.00
10079;BME280;5078;42.544;22.966;2022-09-12T00:47:53;93711.78;;;14.75;100.00
10079;BME280;5078;42.544;22.966;2022-09-12T00:50:20;93712.00;;;14.86;100.00
10079;BME280;5078;42.544;22.966;2022-09-12T00:52:50;93705.00;;;14.85;100.00
10079;BME280;5078;42.544;22.966;2022-09-12T00:55:21;93713.22;;;14.71;100.00
10079;BME280;5078;42.544;22.966;2022-09-12T00:57:54;93715.03;;;14.70;100.00
10079;BME280;5078;42.544;22.966;2022-09-12T01:00:24;93701.09;;;14.75;100.00
10079;BME280;5078;42.544;22.966;2022-09-12T01:02:55;93699.47;;;14.74;100.00
10079;BME280;5078;42.544;22.966;2022-09-12T01:05:24;93706.03;;;14.58;100.00
10079;BME280;5078;42.544;22.966;2022-09-12T01:07:53;93699.66;;;14.72;100.00
10079;BME280;5078;42.544;22.966;2022-09-12T01:10:20;93691.66;;;14.72;100.00
10079;BME280;5078;42.544;22.966;2022-09-12T01:12:47;93694.53;;;14.71;100.00
10079;BME280;5078;42.544;22.966;2022-09-12T01:15:16;93703.56;;;14.76;100.00
10079;BME280;5078;42.544;22.966;2022-09-12T01:17:53;93701.91;;;14.62;100.00
10079;BME280;5078;42.544;22.966;2022-09-12T01:20:48;93698.22;;;14.70;100.00
10079;BME280;5078;42.544;22.966;2022-09-12T01:27:01;93692.69;;;14.58;100.00
10079;BME280;5078;42.544;22.966;2022-09-12T01:30:05;93695.56;;;14.63;100.00
10079;BME280;5078;42.544;22.966;2022-09-12T01:32:44;93692.63;;;14.44;100.00
10079;BME280;5078;42.544;22.966;2022-09-12T01:35:21;93688.78;;;14.54;100.00
10079;BME280;5078;42.544;22.966;2022-09-12T01:37:57;93681.53;;;14.48;100.00
10079;BME280;5078;42.544;22.966;2022-09-12T01:40:31;93694.88;;;14.34;100.00
10079;BME280;5078;42.544;22.966;2022-09-12T01:43:05;93685.66;;;14.43;100.00
10079;BME280;5078;42.544;22.966;2022-09-12T01:45:40;93704.66;;;14.07;100.00
10079;BME280;5078;42.544;22.966;2022-09-12T01:48:14;93695.44;;;14.10;100.00
10079;BME280;5078;42.544;22.966;2022-09-12T01:50:47;93688.66;;;14.07;100.00
10079;BME280;5078;42.544;22.966;2022-09-12T01:53:19;93705.03;;;13.91;100.00
10079;BME280;5078;42.544;22.966;2022-09-12T01:55:50;93702.47;;;13.69;100.00
10079;BME280;5078;42.544;22.966;2022-09-12T01:58:20;93706.13;;;13.62;100.00
10079;BME280;5078;42.544;22.966;2022-09-12T02:00:51;93700.66;;;13.76;100.00
10079;BME280;5078;42.544;22.966;2022-09-12T02:03:26;93708.44;;;13.71;100.00
10079;BME280;5078;42.544;22.966;2022-09-12T02:05:59;93707.84;;;13.76;100.00
10079;BME280;5078;42.544;22.966;2022-09-12T02:08:32;93708.47;;;13.78;100.00
10079;BME280;5078;42.544;22.966;2022-09-12T02:11:02;93710.50;;;13.76;100.00
10079;BME280;5078;42.544;22.966;2022-09-12T02:13:35;93707.03;;;13.82;100.00
10079;BME280;5078;42.544;22.966;2022-09-12T02:16:06;93703.00;;;13.93;100.00
10079;BME280;5078;42.544;22.966;2022-09-12T02:18:37;93706.66;;;13.92;100.00
10079;BME280;5078;42.544;22.966;2022-09-12T02:21:06;93707.72;;;13.97;100.00
10079;BME280;5078;42.544;22.966;2022-09-12T02:23:36;93710.78;;;13.94;100.00
10079;BME280;5078;42.544;22.966;2022-09-12T02:26:07;93711.59;;;13.88;100.00
10079;BME280;5078;42.544;22.966;2022-09-12T02:28:39;93708.06;;;13.81;100.00
10079;BME280;5078;42.544;22.966;2022-09-12T02:31:12;93708.25;;;13.79;100.00
10079;BME280;5078;42.544;22.966;2022-09-12T02:33:47;93709.84;;;13.67;100.00
10079;BME280;5078;42.544;22.966;2022-09-12T02:36:24;93714.81;;;13.77;100.00
10079;BME280;5078;42.544;22.966;2022-09-12T02:38:56;93705.81;;;13.78;100.00
10079;BME280;5078;42.544;22.966;2022-09-12T02:41:22;93709.44;;;13.64;100.00
10079;BME280;5078;42.544;22.966;2022-09-12T02:43:50;93715.66;;;13.36;100.00
10079;BME280;5078;42.544;22.966;2022-09-12T02:46:22;93709.69;;;13.34;100.00
10079;BME280;5078;42.544;22.966;2022-09-12T02:48:54;93710.59;;;13.20;100.00
10079;BME280;5078;42.544;22.966;2022-09-12T02:51:21;93710.72;;;13.33;100.00
10079;BME280;5078;42.544;22.966;2022-09-12T02:53:48;93714.00;;;13.35;100.00
10079;BME280;5078;42.544;22.966;2022-09-12T02:56:18;93712.00;;;13.44;100.00
10079;BME280;5078;42.544;22.966;2022-09-12T02:58:47;93695.53;;;13.05;100.00
10079;BME280;5078;42.544;22.966;2022-09-12T03:01:24;93716.94;;;13.19;100.00
10079;BME280;5078;42.544;22.966;2022-09-12T03:04:09;93718.34;;;13.14;100.00
10079;BME280;5078;42.544;22.966;2022-09-12T03:06:50;93713.66;;;13.16;100.00
10079;BME280;5078;42.544;22.966;2022-09-12T03:09:27;93716.72;;;13.20;100.00
10079;BME280;5078;42.544;22.966;2022-09-12T03:12:07;93712.38;;;13.12;100.00
10079;BME280;5078;42.544;22.966;2022-09-12T03:14:48;93713.38;;;13.33;100.00
10079;BME280;5078;42.544;22.966;2022-09-12T03:17:25;93706.28;;;13.19;100.00
10079;BME280;5078;42.544;22.966;2022-09-12T03:19:59;93721.09;;;13.28;100.00
10079;BME280;5078;42.544;22.966;2022-09-12T03:22:32;93724.22;;;13.03;100.00
10079;BME280;5078;42.544;22.966;2022-09-12T03:25:05;93725.38;;;12.94;100.00
10079;BME280;5078;42.544;22.966;2022-09-12T03:27:39;93719.91;;;13.02;100.00
10079;BME280;5078;42.544;22.966;2022-09-12T03:30:11;93718.06;;;13.03;100.00
10079;BME280;5078;42.544;22.966;2022-09-12T03:32:42;93714.91;;;13.21;100.00
10079;BME280;5078;42.544;22.966;2022-09-12T03:35:12;93719.16;;;13.15;100.00
10079;BME280;5078;42.544;22.966;2022-09-12T03:37:39;93720.38;;;13.12;100.00
10079;BME280;5078;42.544;22.966;2022-09-12T03:40:07;93716.84;;;13.05;100.00
10079;BME280;5078;42.544;22.966;2022-09-12T03:42:34;93706.16;;;12.70;100.00
10079;BME280;5078;42.544;22.966;2022-09-12T03:45:01;93723.22;;;12.83;100.00
10079;BME280;5078;42.544;22.966;2022-09-12T03:47:28;93722.47;;;12.89;100.00
10079;BME280;5078;42.544;22.966;2022-09-12T03:49:55;93724.41;;;13.02;100.00
10079;BME280;5078;42.544;22.966;2022-09-12T03:52:23;93726.91;;;13.10;100.00
10079;BME280;5078;42.544;22.966;2022-09-12T03:54:50;93721.56;;;13.03;100.00
10079;BME280;5078;42.544;22.966;2022-09-12T03:57:16;93735.34;;;13.13;100.00
10079;BME280;5078;42.544;22.966;2022-09-12T03:59:43;93731.00;;;13.12;100.00
10079;BME280;5078;42.544;22.966;2022-09-12T04:02:10;93731.75;;;13.00;100.00
10079;BME280;5078;42.544;22.966;2022-09-12T04:04:39;93731.72;;;12.93;100.00
10079;BME280;5078;42.544;22.966;2022-09-12T04:07:07;93738.84;;;12.92;100.00
10079;BME280;5078;42.544;22.966;2022-09-12T04:09:36;93742.13;;;13.23;100.00
10079;BME280;5078;42.544;22.966;2022-09-12T04:12:04;93740.84;;;13.40;100.00
10079;BME280;5078;42.544;22.966;2022-09-12T04:14:30;93744.25;;;13.55;100.00
10079;BME280;5078;42.544;22.966;2022-09-12T04:16:57;93740.97;;;13.60;100.00
10079;BME280;5078;42.544;22.966;2022-09-12T04:19:24;93755.91;;;13.26;100.00
10079;BME280;5078;42.544;22.966;2022-09-12T04:21:51;93755.78;;;12.85;100.00
10079;BME280;5078;42.544;22.966;2022-09-12T04:24:18;93760.06;;;12.79;100.00
10079;BME280;5078;42.544;22.966;2022-09-12T04:26:46;93757.13;;;12.74;100.00
10079;BME280;5078;42.544;22.966;2022-09-12T04:29:13;93761.66;;;12.73;100.00
10079;BME280;5078;42.544;22.966;2022-09-12T04:31:40;93746.75;;;12.79;100.00
10079;BME280;5078;42.544;22.966;2022-09-12T04:34:07;93752.69;;;12.81;100.00
10079;BME280;5078;42.544;22.966;2022-09-12T04:36:34;93752.25;;;12.78;100.00
10079;BME280;5078;42.544;22.966;2022-09-12T04:39:02;93753.09;;;12.78;100.00
10079;BME280;5078;42.544;22.966;2022-09-12T04:41:32;93753.28;;;12.55;100.00
10079;BME280;5078;42.544;22.966;2022-09-12T04:44:03;93758.66;;;12.62;100.00
10079;BME280;5078;42.544;22.966;2022-09-12T04:46:37;93752.13;;;12.21;100.00
10079;BME280;5078;42.544;22.966;2022-09-12T04:49:10;93749.97;;;12.10;100.00
10079;BME280;5078;42.544;22.966;2022-09-12T04:51:40;93760.31;;;12.05;100.00
10079;BME280;5078;42.544;22.966;2022-09-12T04:54:10;93762.25;;;12.33;100.00
10079;BME280;5078;42.544;22.966;2022-09-12T04:56:39;93771.81;;;12.70;100.00
10079;BME280;5078;42.544;22.966;2022-09-12T04:59:07;93730.38;;;12.82;100.00
10079;BME280;5078;42.544;22.966;2022-09-12T05:01:35;93765.78;;;13.32;100.00
10079;BME280;5078;42.544;22.966;2022-09-12T05:04:02;93763.88;;;13.26;100.00
10079;BME280;5078;42.544;22.966;2022-09-12T05:06:32;93767.81;;;13.58;100.00
10079;BME280;5078;42.544;22.966;2022-09-12T05:09:00;93772.56;;;13.70;100.00
10079;BME280;5078;42.544;22.966;2022-09-12T05:11:28;93774.88;;;14.28;100.00
10079;BME280;5078;42.544;22.966;2022-09-12T05:13:56;93784.88;;;14.80;100.00
10079;BME280;5078;42.544;22.966;2022-09-12T05:16:25;93775.44;;;15.04;100.00
10079;BME280;5078;42.544;22.966;2022-09-12T05:18:53;93777.50;;;14.89;100.00
10079;BME280;5078;42.544;22.966;2022-09-12T05:21:21;93776.25;;;14.78;100.00
10079;BME280;5078;42.544;22.966;2022-09-12T05:23:50;93775.66;;;15.16;100.00
10079;BME280;5078;42.544;22.966;2022-09-12T05:26:17;93784.06;;;15.33;100.00
10079;BME280;5078;42.544;22.966;2022-09-12T05:28:46;93783.63;;;15.83;100.00
10079;BME280;5078;42.544;22.966;2022-09-12T05:31:14;93783.22;;;16.31;100.00
10079;BME280;5078;42.544;22.966;2022-09-12T05:33:44;93777.09;;;16.62;100.00
10079;BME280;5078;42.544;22.966;2022-09-12T05:36:13;93776.97;;;16.89;100.00
10079;BME280;5078;42.544;22.966;2022-09-12T05:38:40;93784.16;;;17.20;100.00
10079;BME280;5078;42.544;22.966;2022-09-12T05:41:08;93780.22;;;17.48;100.00
10079;BME280;5078;42.544;22.966;2022-09-12T05:43:36;93771.31;;;17.72;100.00
10079;BME280;5078;42.544;22.966;2022-09-12T05:46:04;93778.66;;;17.83;99.76
10079;BME280;5078;42.544;22.966;2022-09-12T05:48:33;93766.91;;;18.03;97.06
10079;BME280;5078;42.544;22.966;2022-09-12T05:51:04;93771.00;;;18.05;99.69
10079;BME280;5078;42.544;22.966;2022-09-12T05:53:31;93769.78;;;18.38;96.53
10079;BME280;5078;42.544;22.966;2022-09-12T05:56:06;93756.06;;;18.77;94.80
10079;BME280;5078;42.544;22.966;2022-09-12T05:58:34;93763.69;;;18.91;91.71
10079;BME280;5078;42.544;22.966;2022-09-12T06:01:02;93753.34;;;19.18;89.52
10079;BME280;5078;42.544;22.966;2022-09-12T06:03:31;93763.13;;;19.01;89.12
10079;BME280;5078;42.544;22.966;2022-09-12T06:06:02;93748.13;;;18.82;93.75
10079;BME280;5078;42.544;22.966;2022-09-12T06:08:30;93754.59;;;18.92;91.84
10079;BME280;5078;42.544;22.966;2022-09-12T06:10:58;93749.69;;;19.01;90.35
10079;BME280;5078;42.544;22.966;2022-09-12T06:13:25;93750.09;;;19.28;91.33
10079;BME280;5078;42.544;22.966;2022-09-12T06:15:52;93754.72;;;18.67;92.12
10079;BME280;5078;42.544;22.966;2022-09-12T06:18:19;93760.28;;;19.61;87.73
10079;BME280;5078;42.544;22.966;2022-09-12T06:20:46;93761.84;;;19.81;86.97
10079;BME280;5078;42.544;22.966;2022-09-12T06:23:14;93757.75;;;19.90;85.10
10079;BME280;5078;42.544;22.966;2022-09-12T06:25:47;93767.81;;;19.83;87.11
10079;BME280;5078;42.544;22.966;2022-09-12T06:28:14;93775.41;;;19.74;86.85
10079;BME280;5078;42.544;22.966;2022-09-12T06:30:41;93758.19;;;19.52;88.59
10079;BME280;5078;42.544;22.966;2022-09-12T06:33:08;93769.41;;;19.49;86.37
10079;BME280;5078;42.544;22.966;2022-09-12T06:35:35;93766.69;;;18.53;93.38
10079;BME280;5078;42.544;22.966;2022-09-12T06:38:03;93768.91;;;19.28;90.75
10079;BME280;5078;42.544;22.966;2022-09-12T06:40:31;93766.19;;;19.70;88.42
10079;BME280;5078;42.544;22.966;2022-09-12T06:42:58;93762.38;;;20.18;89.16
10079;BME280;5078;42.544;22.966;2022-09-12T06:45:25;93764.34;;;20.35;88.49
10079;BME280;5078;42.544;22.966;2022-09-12T06:47:53;93774.41;;;20.80;83.54
10079;BME280;5078;42.544;22.966;2022-09-12T06:50:20;93777.81;;;20.75;79.82
10079;BME280;5078;42.544;22.966;2022-09-12T06:52:48;93771.34;;;21.05;80.83
10079;BME280;5078;42.544;22.966;2022-09-12T06:55:15;93777.31;;;20.38;78.08
10079;BME280;5078;42.544;22.966;2022-09-12T06:57:43;93777.59;;;19.66;82.75
10079;BME280;5078;42.544;22.966;2022-09-12T07:00:11;93781.91;;;19.31;85.37
10079;BME280;5078;42.544;22.966;2022-09-12T07:02:38;93784.84;;;19.53;83.94
10079;BME280;5078;42.544;22.966;2022-09-12T07:05:05;93783.22;;;19.52;83.89
10079;BME280;5078;42.544;22.966;2022-09-12T07:07:33;93778.72;;;19.34;83.94
10079;BME280;5078;42.544;22.966;2022-09-12T07:10:00;93782.13;;;19.42;85.42
10079;BME280;5078;42.544;22.966;2022-09-12T07:12:27;93785.91;;;19.64;85.10
10079;BME280;5078;42.544;22.966;2022-09-12T07:14:55;93782.38;;;19.40;85.90
10079;BME280;5078;42.544;22.966;2022-09-12T07:17:22;93784.72;;;19.25;84.58
10079;BME280;5078;42.544;22.966;2022-09-12T07:19:49;93783.19;;;19.29;84.04
10079;BME280;5078;42.544;22.966;2022-09-12T07:22:15;93772.38;;;19.71;82.84
10079;BME280;5078;42.544;22.966;2022-09-12T07:24:42;93781.75;;;19.80;79.59
10079;BME280;5078;42.544;22.966;2022-09-12T07:27:10;93773.19;;;19.59;79.04
10079;BME280;5078;42.544;22.966;2022-09-12T07:29:36;93767.59;;;19.73;80.92
10079;BME280;5078;42.544;22.966;2022-09-12T07:32:05;93752.72;;;19.82;79.46
10079;BME280;5078;42.544;22.966;2022-09-12T07:34:33;93770.03;;;19.98;78.30
10079;BME280;5078;42.544;22.966;2022-09-12T07:37:00;93771.38;;;20.24;78.29
10079;BME280;5078;42.544;22.966;2022-09-12T07:39:26;93774.84;;;20.60;75.66
10079;BME280;5078;42.544;22.966;2022-09-12T07:41:53;93775.50;;;20.67;75.10
10079;BME280;5078;42.544;22.966;2022-09-12T07:44:20;93768.06;;;21.03;71.41
10079;BME280;5078;42.544;22.966;2022-09-12T07:46:47;93768.28;;;21.30;69.86
10079;BME280;5078;42.544;22.966;2022-09-12T07:49:16;93773.09;;;21.79;67.78
10079;BME280;5078;42.544;22.966;2022-09-12T07:51:43;93767.16;;;21.43;69.25
10079;BME280;5078;42.544;22.966;2022-09-12T07:54:10;93767.91;;;21.72;64.69
10079;BME280;5078;42.544;22.966;2022-09-12T07:56:36;93767.81;;;21.67;65.04
10079;BME280;5078;42.544;22.966;2022-09-12T07:59:03;93766.03;;;21.10;63.75
10079;BME280;5078;42.544;22.966;2022-09-12T08:01:30;93770.78;;;21.37;63.99
10079;BME280;5078;42.544;22.966;2022-09-12T08:03:58;93772.09;;;21.34;60.06
10079;BME280;5078;42.544;22.966;2022-09-12T08:06:27;93769.56;;;21.10;62.17
10079;BME280;5078;42.544;22.966;2022-09-12T08:08:58;93763.41;;;20.98;61.45
10079;BME280;5078;42.544;22.966;2022-09-12T08:11:27;93772.09;;;21.17;60.76
10079;BME280;5078;42.544;22.966;2022-09-12T08:13:55;93776.72;;;21.50;62.15
10079;BME280;5078;42.544;22.966;2022-09-12T08:16:23;93771.84;;;21.64;61.98
10079;BME280;5078;42.544;22.966;2022-09-12T08:18:51;93760.66;;;20.81;62.31
10079;BME280;5078;42.544;22.966;2022-09-12T08:21:19;93776.03;;;20.81;63.38
10079;BME280;5078;42.544;22.966;2022-09-12T08:23:51;93774.84;;;20.36;61.67
10079;BME280;5078;42.544;22.966;2022-09-12T08:26:18;93780.56;;;19.99;64.12
10079;BME280;5078;42.544;22.966;2022-09-12T08:28:45;93779.38;;;19.95;64.34
10079;BME280;5078;42.544;22.966;2022-09-12T08:31:14;93775.22;;;20.28;64.71
10079;BME280;5078;42.544;22.966;2022-09-12T08:33:42;93768.28;;;20.44;62.87
10079;BME280;5078;42.544;22.966;2022-09-12T08:36:10;93762.59;;;20.98;62.27
10079;BME280;5078;42.544;22.966;2022-09-12T08:38:40;93768.09;;;21.37;59.86
10079;BME280;5078;42.544;22.966;2022-09-12T08:41:14;93763.09;;;21.57;57.61
10079;BME280;5078;42.544;22.966;2022-09-12T08:43:55;93764.84;;;21.68;57.11
10079;BME280;5078;42.544;22.966;2022-09-12T08:46:28;93762.81;;;21.59;57.32
10079;BME280;5078;42.544;22.966;2022-09-12T08:49:00;93750.94;;;22.32;55.46
10079;BME280;5078;42.544;22.966;2022-09-12T08:51:28;93749.84;;;22.33;55.41
10079;BME280;5078;42.544;22.966;2022-09-12T08:53:57;93722.19;;;22.04;55.04
10079;BME280;5078;42.544;22.966;2022-09-12T08:56:28;93755.06;;;21.62;56.24
10079;BME280;5078;42.544;22.966;2022-09-12T08:58:57;93757.97;;;21.10;57.11
10079;BME280;5078;42.544;22.966;2022-09-12T09:01:29;93754.59;;;20.74;59.76
10079;BME280;5078;42.544;22.966;2022-09-12T09:04:16;93748.94;;;20.87;60.14
10079;BME280;5078;42.544;22.966;2022-09-12T09:07:24;93747.44;;;21.25;60.28
10079;BME280;5078;42.544;22.966;2022-09-12T09:10:03;93744.19;;;20.78;60.63
10079;BME280;5078;42.544;22.966;2022-09-12T09:12:40;93759.09;;;21.14;60.28
10079;BME280;5078;42.544;22.966;2022-09-12T09:15:32;93753.47;;;21.16;58.68
10079;BME280;5078;42.544;22.966;2022-09-12T09:18:04;93746.03;;;21.23;57.09
10079;BME280;5078;42.544;22.966;2022-09-12T09:20:40;93752.13;;;21.47;58.27
10079;BME280;5078;42.544;22.966;2022-09-12T09:23:12;93740.25;;;22.21;55.46
10079;BME280;5078;42.544;22.966;2022-09-12T09:25:47;93736.50;;;22.22;55.05
10079;BME280;5078;42.544;22.966;2022-09-12T09:28:21;93745.81;;;21.24;54.89
10079;BME280;5078;42.544;22.966;2022-09-12T09:30:50;93745.34;;;20.82;57.50
10079;BME280;5078;42.544;22.966;2022-09-12T09:33:20;93732.41;;;20.67;60.30
10079;BME280;5078;42.544;22.966;2022-09-12T09:35:53;93722.47;;;21.01;59.92
10079;BME280;5078;42.544;22.966;2022-09-12T09:38:30;93732.59;;;21.40;59.96
10079;BME280;5078;42.544;22.966;2022-09-12T09:41:15;93748.50;;;21.41;58.53
10079;BME280;5078;42.544;22.966;2022-09-12T09:43:45;93738.88;;;21.79;56.12
10079;BME280;5078;42.544;22.966;2022-09-12T09:46:12;93736.72;;;21.30;57.71
10079;BME280;5078;42.544;22.966;2022-09-12T09:48:41;93741.13;;;21.03;58.08
10079;BME280;5078;42.544;22.966;2022-09-12T09:51:10;93736.47;;;21.15;58.57
10079;BME280;5078;42.544;22.966;2022-09-12T09:53:44;93732.19;;;20.85;58.49
10079;BME280;5078;42.544;22.966;2022-09-12T09:56:26;93722.41;;;20.79;58.92
10079;BME280;5078;42.544;22.966;2022-09-12T09:58:54;93726.72;;;20.80;58.59
10079;BME280;5078;42.544;22.966;2022-09-12T10:01:22;93730.59;;;21.35;58.39
10079;BME280;5078;42.544;22.966;2022-09-12T10:03:50;93731.97;;;21.04;58.37
10079;BME280;5078;42.544;22.966;2022-09-12T10:06:29;93733.34;;;20.89;60.16
10079;BME280;5078;42.544;22.966;2022-09-12T10:09:15;93716.06;;;20.74;61.35
10079;BME280;5078;42.544;22.966;2022-09-12T10:11:43;93735.66;;;20.69;60.76
10079;BME280;5078;42.544;22.966;2022-09-12T10:14:27;93730.25;;;20.00;65.82
10079;BME280;5078;42.544;22.966;2022-09-12T10:16:54;93734.66;;;19.94;65.46
10079;BME280;5078;42.544;22.966;2022-09-12T10:19:25;93739.03;;;19.83;68.17
10079;BME280;5078;42.544;22.966;2022-09-12T10:21:58;93728.63;;;19.87;67.96
10079;BME280;5078;42.544;22.966;2022-09-12T10:24:29;93741.94;;;19.47;69.67
10079;BME280;5078;42.544;22.966;2022-09-12T10:27:06;93750.00;;;19.58;70.59
10079;BME280;5078;42.544;22.966;2022-09-12T10:29:40;93747.50;;;19.22;72.24
10079;BME280;5078;42.544;22.966;2022-09-12T10:32:11;93728.00;;;18.72;74.70
10079;BME280;5078;42.544;22.966;2022-09-12T10:34:44;93754.31;;;19.12;73.93
10079;BME280;5078;42.544;22.966;2022-09-12T10:37:17;93744.56;;;19.11;72.26
10079;BME280;5078;42.544;22.966;2022-09-12T10:39:50;93756.66;;;19.44;69.85
10079;BME280;5078;42.544;22.966;2022-09-12T10:42:41;93741.38;;;19.68;67.65
10079;BME280;5078;42.544;22.966;2022-09-12T10:45:22;93740.03;;;20.46;64.99
10079;BME280;5078;42.544;22.966;2022-09-12T10:47:50;93739.63;;;20.38;64.50
10079;BME280;5078;42.544;22.966;2022-09-12T10:50:23;93751.81;;;20.69;61.44
10079;BME280;5078;42.544;22.966;2022-09-12T10:52:51;93731.31;;;20.39;61.70
10079;BME280;5078;42.544;22.966;2022-09-12T10:55:23;93748.75;;;20.77;60.61
10079;BME280;5078;42.544;22.966;2022-09-12T10:58:04;93748.13;;;21.04;58.06
10079;BME280;5078;42.544;22.966;2022-09-12T11:00:39;93743.56;;;21.21;57.79
10079;BME280;5078;42.544;22.966;2022-09-12T11:03:15;93754.06;;;21.51;58.59
10079;BME280;5078;42.544;22.966;2022-09-12T11:05:54;93737.06;;;21.51;57.91
10079;BME280;5078;42.544;22.966;2022-09-12T11:11:48;93752.25;;;21.23;53.79
10079;BME280;5078;42.544;22.966;2022-09-12T11:14:29;93747.09;;;21.05;57.37
10079;BME280;5078;42.544;22.966;2022-09-12T11:17:06;93748.31;;;20.97;57.28
10079;BME280;5078;42.544;22.966;2022-09-12T11:19:49;93743.28;;;21.35;56.93
10079;BME280;5078;42.544;22.966;2022-09-12T11:22:42;93742.47;;;21.68;55.97
10079;BME280;5078;42.544;22.966;2022-09-12T11:25:22;93736.41;;;21.44;55.79
10079;BME280;5078;42.544;22.966;2022-09-12T11:28:04;93738.22;;;21.72;55.30
10079;BME280;5078;42.544;22.966;2022-09-12T11:30:36;93736.41;;;21.44;55.48
10079;BME280;5078;42.544;22.966;2022-09-12T11:33:22;93735.25;;;21.57;58.20
10079;BME280;5078;42.544;22.966;2022-09-12T11:35:53;93734.56;;;20.99;57.73
10079;BME280;5078;42.544;22.966;2022-09-12T11:38:51;93733.03;;;20.74;56.26
10079;BME280;5078;42.544;22.966;2022-09-12T11:41:25;93729.97;;;20.13;56.65
10079;BME280;5078;42.544;22.966;2022-09-12T11:44:00;93731.84;;;20.53;57.53
10079;BME280;5078;42.544;22.966;2022-09-12T11:46:33;93723.69;;;20.36;59.02
10079;BME280;5078;42.544;22.966;2022-09-12T11:49:10;93726.03;;;20.73;57.73
10079;BME280;5078;42.544;22.966;2022-09-12T11:51:44;93722.56;;;20.32;57.43
10079;BME280;5078;42.544;22.966;2022-09-12T11:54:19;93723.78;;;20.13;58.07
10079;BME280;5078;42.544;22.966;2022-09-12T11:56:49;93725.03;;;20.22;59.80
10079;BME280;5078;42.544;22.966;2022-09-12T11:59:29;93728.97;;;19.79;60.14
10079;BME280;5078;42.544;22.966;2022-09-12T12:01:58;93723.47;;;19.86;60.90
10079;BME280;5078;42.544;22.966;2022-09-12T12:04:33;93730.94;;;19.95;60.13
10079;BME280;5078;42.544;22.966;2022-09-12T12:07:04;93723.97;;;20.23;60.18
10079;BME280;5078;42.544;22.966;2022-09-12T12:09:32;93723.59;;;20.31;59.50
10079;BME280;5078;42.544;22.966;2022-09-12T12:12:02;93723.47;;;19.97;60.24
10079;BME280;5078;42.544;22.966;2022-09-12T12:14:36;93718.88;;;19.98;60.52
10079;BME280;5078;42.544;22.966;2022-09-12T12:17:13;93715.63;;;19.84;61.81
10079;BME280;5078;42.544;22.966;2022-09-12T12:19:42;93712.91;;;20.08;60.50
10079;BME280;5078;42.544;22.966;2022-09-12T12:22:15;93697.13;;;19.99;60.00
10079;BME280;5078;42.544;22.966;2022-09-12T12:25:02;93713.50;;;19.98;60.79
10079;BME280;5078;42.544;22.966;2022-09-12T12:27:48;93716.19;;;20.10;61.12
10079;BME280;5078;42.544;22.966;2022-09-12T12:33:53;93717.72;;;19.94;63.68
10079;BME280;5078;42.544;22.966;2022-09-12T12:36:34;93718.56;;;19.71;61.83
10079;BME280;5078;42.544;22.966;2022-09-12T12:48:23;93724.16;;;19.81;60.84
10079;BME280;5078;42.544;22.966;2022-09-12T12:50:50;93716.09;;;19.93;59.87
10079;BME280;5078;42.544;22.966;2022-09-12T12:53:21;93707.44;;;19.32;61.63
10079;BME280;5078;42.544;22.966;2022-09-12T12:55:50;93727.72;;;19.70;60.95
10079;BME280;5078;42.544;22.966;2022-09-12T12:58:28;93718.44;;;19.54;60.58
10079;BME280;5078;42.544;22.966;2022-09-12T13:01:08;93729.88;;;19.96;60.77
10079;BME280;5078;42.544;22.966;2022-09-12T13:03:38;93735.16;;;19.91;58.84
10079;BME280;5078;42.544;22.966;2022-09-12T13:06:08;93734.50;;;20.24;59.62
10079;BME280;5078;42.544;22.966;2022-09-12T13:08:56;93732.78;;;20.07;57.59
10079;BME280;5078;42.544;22.966;2022-09-12T13:11:29;93739.28;;;19.70;59.01
10079;BME280;5078;42.544;22.966;2022-09-12T13:13:59;93736.91;;;19.50;58.36
10079;BME280;5078;42.544;22.966;2022-09-12T13:16:33;93734.47;;;19.37;59.28
10079;BME280;5078;42.544;22.966;2022-09-12T13:19:03;93741.66;;;19.01;60.21
10079;BME280;5078;42.544;22.966;2022-09-12T13:21:31;93741.75;;;18.94;62.02
10079;BME280;5078;42.544;22.966;2022-09-12T13:24:02;93732.94;;;18.75;62.56
10079;BME280;5078;42.544;22.966;2022-09-12T13:26:33;93724.00;;;18.93;63.75
10079;BME280;5078;42.544;22.966;2022-09-12T13:29:11;93727.53;;;19.17;62.55
10079;BME280;5078;42.544;22.966;2022-09-12T13:31:38;93716.31;;;19.09;62.86
10079;BME280;5078;42.544;22.966;2022-09-12T13:34:08;93724.50;;;19.02;61.89
10079;BME280;5078;42.544;22.966;2022-09-12T13:37:07;93735.72;;;19.11;62.15